Hudson Mills, Michigan
Current Conditions -  °F | °C
As of 6:53 PM on Monday 24 Nov 2014 (Local Time) from KARB Reporting Station
Overcast Overcast  
Wind Chill: 25°   Ceiling: 2200
Heat Index: 37°   Visibility: 10mi
Dew Point: 28°   Wind: 25mph
Humidity: 70%   Direction: 220°SW
Pressure: 29.56"   Gusts: 36mph
Location:  42.3528°N, 83.8974°W
Report Text: KARB 242353Z 22022G31KT 10SM OVC022 03/M02 A2956 RMK AO2 PK WND 23037/2308 SLP014 T00281022 10106 20028 53047
Loading
Personal Weather Stations






























Interactive Weather Map New forecast layout! Learn more

10-Day Weather Forecast

Advertisements
Track Severe Weather on mobile